Time;durP1;ratioP1;P1;durP2;ratioP2;P2;SDS_P1;SDS_P2;PMS_P1;PMS_P2;Temp;Humidity;BMP_temperature;BMP_pressure;BME280_temperature;BME280_humidity;BME280_pressure;Samples;Min_cycle;Max_cycle;Signal;HPM_P1;HPM_P2
2022/07/11 00:01:09;;;;;;;1.90;1.30;;;;;;;13.48;73.37;98399.13;104755;1274;76526;-25
2022/07/11 00:03:36;;;;;;;1.90;1.20;;;;;;;13.28;74.03;98398.55;104705;1271;76130;-25
2022/07/11 00:06:04;;;;;;;4.10;1.40;;;;;;;13.02;75.40;98398.33;104848;1271;74318;-25
2022/07/11 00:08:31;;;;;;;2.20;1.00;;;;;;;12.82;76.07;98394.37;104690;1271;65080;-24
2022/07/11 00:11:00;;;;;;;2.90;1.20;;;;;;;13.16;75.13;98392.85;104754;1272;63075;-25
2022/07/11 00:13:28;;;;;;;1.30;0.90;;;;;;;13.34;73.97;98391.70;105127;1271;76196;-24
2022/07/11 00:15:55;;;;;;;1.70;1.10;;;;;;;13.30;73.86;98393.16;104977;1274;76891;-25
2022/07/11 00:18:25;;;;;;;3.20;1.30;;;;;;;13.14;74.30;98389.91;105144;1271;75413;-25
2022/07/11 00:20:52;;;;;;;3.70;1.30;;;;;;;12.92;75.11;98400.49;105076;1271;61885;-25
2022/07/11 00:23:20;;;;;;;2.30;1.30;;;;;;;12.67;76.08;98397.63;104814;1271;61212;-25
2022/07/11 00:25:47;;;;;;;1.40;0.90;;;;;;;12.50;76.90;98404.02;104781;1271;74734;-25
2022/07/11 00:28:14;;;;;;;1.50;1.10;;;;;;;12.85;75.67;98401.70;104854;1271;77040;-25
2022/07/11 00:30:42;;;;;;;1.40;1.10;;;;;;;13.28;74.01;98404.89;104766;1271;74651;-25
2022/07/11 00:33:09;;;;;;;2.30;1.10;;;;;;;13.32;73.36;98402.16;104751;1271;61837;-25
2022/07/11 00:35:37;;;;;;;5.20;1.10;;;;;;;13.02;74.28;98396.89;104696;1274;63060;-24
2022/07/11 00:38:04;;;;;;;3.70;1.50;;;;;;;12.74;75.50;98395.58;104701;1271;75644;-24
2022/07/11 00:40:31;;;;;;;2.50;1.40;;;;;;;12.48;76.02;98396.50;104793;1271;75268;-25
2022/07/11 00:42:58;;;;;;;2.30;1.00;;;;;;;12.19;77.70;98394.83;104762;1274;75424;-25
2022/07/11 00:45:26;;;;;;;2.70;1.30;;;;;;;12.42;77.44;98396.55;104788;1271;62043;-24
2022/07/11 00:47:55;;;;;;;2.60;1.00;;;;;;;12.81;75.75;98397.96;104591;1274;61160;-25
2022/07/11 00:50:23;;;;;;;4.70;1.20;;;;;;;12.68;75.78;98396.11;104873;1271;76526;-25
2022/07/11 00:52:51;;;;;;;3.90;1.30;;;;;;;12.52;76.13;98394.92;104730;1271;77172;-24
2022/07/11 00:55:19;;;;;;;3.20;1.70;;;;;;;12.26;77.38;98395.73;104730;1271;74501;-25
2022/07/11 00:57:46;;;;;;;3.20;1.20;;;;;;;11.99;78.44;98395.17;104777;1274;62026;-25
2022/07/11 01:00:14;;;;;;;1.20;0.80;;;;;;;11.87;78.84;98395.13;104710;1274;61935;-25
2022/07/11 01:02:41;;;;;;;2.30;1.10;;;;;;;12.30;77.73;98392.85;104816;1271;76986;-25
2022/07/11 01:05:08;;;;;;;2.10;1.10;;;;;;;12.70;75.93;98392.39;104699;1274;76933;-25
2022/07/11 01:07:36;;;;;;;2.90;1.40;;;;;;;12.69;75.40;98389.61;104768;1273;75261;-24
2022/07/11 01:10:04;;;;;;;2.40;1.20;;;;;;;12.47;76.13;98394.38;104691;1271;61722;-25
2022/07/11 01:12:31;;;;;;;2.30;1.20;;;;;;;12.18;77.03;98394.95;104887;1271;61963;-25
2022/07/11 01:14:59;;;;;;;2.60;1.30;;;;;;;11.87;78.27;98391.48;105052;1271;76365;-25
2022/07/11 01:17:26;;;;;;;3.00;1.10;;;;;;;11.64;79.61;98391.30;105105;1271;76687;-24
2022/07/11 01:19:53;;;;;;;1.40;0.80;;;;;;;11.96;79.16;98389.73;105094;1271;75376;-25
2022/07/11 01:22:23;;;;;;;2.30;1.20;;;;;;;12.40;77.18;98389.68;104866;1274;61193;-25
2022/07/11 01:24:50;;;;;;;3.30;1.20;;;;;;;12.32;77.01;98387.97;104694;1272;62455;-25
2022/07/11 01:27:19;;;;;;;2.60;1.10;;;;;;;12.13;77.60;98382.23;104914;1271;75568;-25
2022/07/11 01:29:46;;;;;;;2.10;1.30;;;;;;;11.89;78.35;98382.06;104711;1274;75983;-25
2022/07/11 01:32:14;;;;;;;4.50;1.10;;;;;;;11.65;79.28;98381.39;104755;1271;73808;-25
2022/07/11 01:34:41;;;;;;;1.50;0.90;;;;;;;11.47;80.58;98381.19;104645;1271;63488;-24
2022/07/11 01:37:08;;;;;;;2.10;0.80;;;;;;;11.88;79.44;98377.80;104766;1271;62835;-25
2022/07/11 01:39:36;;;;;;;1.80;1.00;;;;;;;12.34;77.66;98382.76;104819;1274;75602;-25
2022/07/11 01:42:04;;;;;;;2.50;1.20;;;;;;;12.34;76.66;98380.63;104770;1271;77141;-25
2022/07/11 01:44:31;;;;;;;2.80;1.10;;;;;;;12.16;77.07;98380.69;104732;1272;75459;-24
2022/07/11 01:46:59;;;;;;;2.40;1.50;;;;;;;11.91;78.24;98382.13;104722;1274;62704;-24
2022/07/11 01:49:29;;;;;;;2.00;1.20;;;;;;;11.65;79.66;98387.70;104798;1271;63292;-25
2022/07/11 01:51:56;;;;;;;1.40;0.90;;;;;;;11.48;81.03;98387.09;104793;1274;76989;-25
2022/07/11 01:54:25;;;;;;;2.80;1.00;;;;;;;11.92;80.33;98381.78;104725;1274;75958;-25
2022/07/11 01:56:53;;;;;;;2.40;1.20;;;;;;;12.35;78.06;98382.45;104750;1271;75445;-24
2022/07/11 01:59:20;;;;;;;2.30;1.30;;;;;;;12.34;77.68;98380.67;104774;1271;62787;-24
2022/07/11 02:01:47;;;;;;;1.90;1.30;;;;;;;12.08;78.75;98379.90;104855;1274;62006;-24
2022/07/11 02:04:14;;;;;;;2.80;1.40;;;;;;;11.91;79.89;98381.67;105007;1271;76525;-25
2022/07/11 02:06:42;;;;;;;2.90;1.00;;;;;;;11.78;80.49;98389.44;105120;1274;77115;-25
2022/07/11 02:09:09;;;;;;;1.50;0.90;;;;;;;12.17;79.22;98394.12;105006;1274;75691;-25
2022/07/11 02:11:37;;;;;;;1.90;1.00;;;;;;;12.58;77.31;98397.09;104866;1274;63054;-24
2022/07/11 02:14:04;;;;;;;1.00;0.90;;;;;;;12.56;76.64;98394.81;104938;1271;62796;-24
2022/07/11 02:16:32;;;;;;;4.00;1.10;;;;;;;12.36;77.46;98393.69;104831;1271;76571;-25
2022/07/11 02:18:59;;;;;;;4.80;1.30;;;;;;;12.11;78.21;98393.92;104737;1274;76297;-24
2022/07/11 02:21:26;;;;;;;6.70;0.90;;;;;;;11.79;79.80;98391.73;104700;1274;74047;-24
2022/07/11 02:23:54;;;;;;;4.30;1.70;;;;;;;12.10;78.69;98391.00;104711;1271;62059;-24
2022/07/11 02:26:21;;;;;;;1.60;0.80;;;;;;;12.36;77.11;98389.41;104707;1271;63044;-24
2022/07/11 02:28:48;;;;;;;2.40;1.10;;;;;;;12.27;77.17;98388.51;104747;1271;76398;-24
2022/07/11 02:31:16;;;;;;;1.90;1.10;;;;;;;11.93;78.76;98387.11;104772;1274;77083;-24
2022/07/11 02:33:43;;;;;;;2.30;1.10;;;;;;;11.70;79.87;98386.33;104730;1271;74791;-24
2022/07/11 02:36:12;;;;;;;2.30;1.00;;;;;;;11.53;80.61;98388.47;104762;1272;63723;-24
2022/07/11 02:38:40;;;;;;;2.30;1.00;;;;;;;11.88;79.60;98385.67;104738;1274;61025;-24
2022/07/11 02:41:07;;;;;;;5.10;1.10;;;;;;;12.15;78.12;98384.06;104822;1272;76481;-24
2022/07/11 02:43:35;;;;;;;1.40;1.10;;;;;;;12.05;78.44;98382.16;104713;1274;77030;-24
2022/07/11 02:46:02;;;;;;;2.50;1.20;;;;;;;11.86;79.30;98382.04;104755;1271;75096;-24
2022/07/11 02:48:30;;;;;;;5.00;1.30;;;;;;;11.66;80.20;98385.29;104715;1271;61126;-24
2022/07/11 02:50:58;;;;;;;6.80;0.90;;;;;;;11.64;81.07;98387.91;104776;1271;63025;-24
2022/07/11 02:53:25;;;;;;;3.80;1.10;;;;;;;12.09;79.50;98386.10;104715;1274;76543;-24
2022/07/11 02:55:53;;;;;;;4.10;1.10;;;;;;;12.40;77.82;98382.84;104730;1274;75035;-24
2022/07/11 02:58:20;;;;;;;1.60;1.10;;;;;;;12.37;77.95;98386.12;104709;1274;75857;-24
2022/07/11 03:00:48;;;;;;;1.50;0.90;;;;;;;12.30;78.35;98386.50;104776;1271;62588;-24
2022/07/11 03:03:15;;;;;;;4.70;0.90;;;;;;;12.21;78.87;98387.73;104765;1271;62472;-24
2022/07/11 03:05:44;;;;;;;1.30;0.70;;;;;;;12.21;78.77;98390.63;104721;1271;76285;-24
2022/07/11 03:08:11;;;;;;;5.00;1.00;;;;;;;12.76;76.94;98390.27;104826;1273;76996;-24
2022/07/11 03:10:38;;;;;;;4.50;1.20;;;;;;;13.05;75.40;98392.21;104821;1271;75531;-25
2022/07/11 03:13:06;;;;;;;4.90;1.20;;;;;;;13.11;74.73;98391.14;104760;1271;61727;-24
2022/07/11 03:15:33;;;;;;;3.70;1.10;;;;;;;13.14;74.66;98392.91;104726;1274;62505;-24
2022/07/11 03:18:01;;;;;;;1.90;0.90;;;;;;;12.86;75.43;98396.42;104758;1274;76561;-24
2022/07/11 03:20:28;;;;;;;3.90;1.90;;;;;;;12.67;76.45;98401.64;104755;1271;77126;-24
2022/07/11 03:22:55;;;;;;;3.00;1.00;;;;;;;12.95;75.51;98404.79;104580;1271;75152;-24
2022/07/11 03:25:23;;;;;;;4.50;1.20;;;;;;;13.17;74.32;98407.41;104737;1271;61179;-24
2022/07/11 03:27:51;;;;;;;2.70;1.00;;;;;;;13.36;73.53;98411.59;104806;1271;62846;-24
2022/07/11 03:30:18;;;;;;;2.40;1.40;;;;;;;13.30;73.64;98407.77;104941;1274;76281;-24
2022/07/11 03:32:45;;;;;;;4.00;1.30;;;;;;;13.26;73.71;98406.28;104749;1271;75994;-24
2022/07/11 03:37:59;;;;;;;1.60;0.80;;;;;;;12.93;74.99;98411.15;104686;1272;64789;-24
2022/07/11 03:40:26;;;;;;;3.20;1.10;;;;;;;13.20;73.64;98408.59;104813;1271;62839;-24
2022/07/11 03:42:54;;;;;;;2.50;1.00;;;;;;;13.36;72.93;98408.20;104830;1271;76479;-24
2022/07/11 03:45:21;;;;;;;1.30;0.80;;;;;;;13.15;73.98;98408.48;105099;1274;76696;-24
2022/07/11 03:47:48;;;;;;;3.30;1.20;;;;;;;12.96;74.75;98405.16;105041;1271;75735;-24
2022/07/11 03:50:16;;;;;;;6.70;1.60;;;;;;;12.80;75.75;98409.05;104992;1271;62054;-24
2022/07/11 03:52:43;;;;;;;2.80;0.70;;;;;;;12.78;76.23;98405.55;104783;1271;61105;-24
2022/07/11 03:55:11;;;;;;;3.10;0.90;;;;;;;13.16;74.71;98406.48;104746;1272;75466;-24
2022/07/11 03:57:38;;;;;;;3.80;1.10;;;;;;;13.32;73.42;98402.71;104725;1271;76944;-24
2022/07/11 04:00:10;;;;;;;2.50;1.10;;;;;;;13.14;74.11;98402.78;104863;1271;74597;-24
2022/07/11 04:02:37;;;;;;;2.20;1.10;;;;;;;13.03;74.64;98405.84;104835;1274;61918;-24
2022/07/11 04:05:05;;;;;;;1.60;1.20;;;;;;;12.81;75.58;98402.68;105003;1272;63108;-24
2022/07/11 04:07:33;;;;;;;1.50;1.00;;;;;;;12.60;76.35;98400.89;104830;1271;76551;-24
2022/07/11 04:10:00;;;;;;;2.90;1.10;;;;;;;12.47;76.95;98397.11;105094;1272;77040;-24
2022/07/11 04:12:28;;;;;;;1.50;0.70;;;;;;;12.86;75.94;98405.23;105086;1271;75449;-24
2022/07/11 04:14:55;;;;;;;2.90;1.10;;;;;;;13.09;74.57;98404.52;104813;1274;63074;-24
2022/07/11 04:17:22;;;;;;;7.20;1.10;;;;;;;12.93;74.95;98405.10;104714;1271;62088;-24
2022/07/11 04:19:50;;;;;;;1.90;1.20;;;;;;;12.82;75.39;98407.58;104727;1272;76618;-24
2022/07/11 04:22:17;;;;;;;4.60;1.20;;;;;;;12.71;75.67;98416.16;104799;1271;77150;-24
2022/07/11 04:24:45;;;;;;;1.10;0.80;;;;;;;12.67;75.77;98416.27;104801;1272;71362;-24
2022/07/11 04:27:12;;;;;;;4.10;1.00;;;;;;;12.73;76.03;98420.90;104726;1271;63492;-24
2022/07/11 04:29:47;;;;;;;6.00;1.00;;;;;;;13.14;74.31;98417.77;104739;1271;61895;-26
2022/07/11 04:32:14;;;;;;;3.20;1.10;;;;;;;13.36;73.29;98424.13;104700;1272;76334;-24
2022/07/11 04:34:42;;;;;;;3.10;1.10;;;;;;;13.35;73.06;98426.09;104759;1272;77022;-24
2022/07/11 04:37:10;;;;;;;2.10;1.00;;;;;;;13.29;73.70;98429.33;104643;1271;73368;-24
2022/07/11 04:39:37;;;;;;;2.50;1.30;;;;;;;13.16;73.97;98428.05;104733;1271;62010;-24
2022/07/11 04:42:06;;;;;;;1.80;1.50;;;;;;;12.97;74.50;98421.76;104776;1271;63107;-24
2022/07/11 04:44:33;;;;;;;4.20;0.90;;;;;;;12.92;74.96;98420.85;104658;1271;76519;-24
2022/07/11 04:47:01;;;;;;;3.50;1.10;;;;;;;13.28;73.55;98417.21;104773;1271;77042;-24
2022/07/11 04:49:29;;;;;;;1.90;1.20;;;;;;;13.70;72.30;98418.56;104905;1271;75444;-24
2022/07/11 04:51:57;;;;;;;6.00;1.30;;;;;;;13.73;71.50;98412.98;104870;1271;63172;-24
2022/07/11 04:54:29;;;;;;;1.40;1.10;;;;;;;13.48;72.33;98417.63;105137;1272;63249;-24
2022/07/11 04:56:56;;;;;;;2.20;1.20;;;;;;;13.53;72.26;98419.11;104989;1274;76575;-25
2022/07/11 04:59:24;;;;;;;2.40;1.10;;;;;;;13.60;72.55;98415.91;104779;1271;75967;-23
2022/07/11 05:01:51;;;;;;;1.80;0.80;;;;;;;13.73;71.91;98416.31;104690;1271;75183;-23
2022/07/11 05:04:19;;;;;;;2.30;1.00;;;;;;;14.34;70.50;98416.25;104614;1274;61814;-23
2022/07/11 05:06:46;;;;;;;2.80;1.10;;;;;;;14.83;68.05;98420.70;104739;1271;61259;-23
2022/07/11 05:09:14;;;;;;;2.30;1.00;;;;;;;15.34;66.65;98426.20;104749;1271;74697;-23
2022/07/11 05:11:41;;;;;;;2.20;0.90;;;;;;;15.60;65.90;98427.86;104732;1271;75972;-24
2022/07/11 05:14:08;;;;;;;3.10;1.40;;;;;;;15.80;64.85;98425.98;104731;1271;75522;-23
2022/07/11 05:16:36;;;;;;;4.30;1.20;;;;;;;15.93;64.35;98430.73;104737;1274;61212;-23
2022/07/11 05:19:04;;;;;;;2.10;0.90;;;;;;;15.84;63.25;98423.11;104884;1274;62511;-23
2022/07/11 05:21:31;;;;;;;3.30;1.00;;;;;;;15.43;64.00;98425.23;104853;1274;76596;-23
2022/07/11 05:23:58;;;;;;;4.60;1.10;;;;;;;14.91;65.93;98425.31;104745;1271;76987;-24
2022/07/11 05:26:25;;;;;;;1.90;1.00;;;;;;;14.74;66.58;98427.34;104790;1271;74097;-24
2022/07/11 05:28:53;;;;;;;3.80;1.20;;;;;;;14.69;67.42;98434.33;104700;1272;61806;-23
2022/07/11 05:31:20;;;;;;;1.70;1.00;;;;;;;14.82;66.95;98441.52;104701;1274;62760;-24
2022/07/11 05:33:48;;;;;;;2.60;1.00;;;;;;;14.76;66.91;98437.95;104614;1271;76844;-24
2022/07/11 05:36:16;;;;;;;30.60;2.00;;;;;;;14.72;67.67;98443.45;104726;1273;77049;-24
2022/07/11 05:38:43;;;;;;;1.30;1.10;;;;;;;14.84;67.78;98443.71;105049;1272;74363;-24
2022/07/11 05:41:10;;;;;;;3.90;1.00;;;;;;;15.34;66.23;98444.36;105071;1271;61967;-24
2022/07/11 05:43:38;;;;;;;3.50;1.30;;;;;;;15.63;64.87;98444.15;105086;1271;61169;-24
2022/07/11 05:46:06;;;;;;;1.70;1.30;;;;;;;15.52;64.80;98444.48;105026;1271;76348;-23
2022/07/11 05:48:33;;;;;;;1.90;1.10;;;;;;;15.11;66.11;98441.89;105052;1271;75277;-24
2022/07/11 05:51:00;;;;;;;3.20;1.40;;;;;;;15.05;66.56;98448.07;104968;1271;75122;-24
2022/07/11 05:53:28;;;;;;;1.70;1.00;;;;;;;15.11;67.48;98454.73;104721;1271;61158;-24
2022/07/11 05:55:55;;;;;;;3.00;1.20;;;;;;;15.03;67.13;98452.11;104780;1270;63010;-24
2022/07/11 05:58:23;;;;;;;2.70;1.30;;;;;;;15.03;67.86;98456.34;104604;1272;75512;-24
2022/07/11 06:02:29;;;;;;;2.70;1.30;;;;;;;15.07;67.71;98456.09;102397;1303;601157;-23
2022/07/11 06:04:57;;;;;;;3.20;1.30;;;;;;;15.03;68.29;98454.46;104191;1284;63050;-23
2022/07/11 06:10:11;;;;;;;4.30;1.00;;;;;;;15.16;68.36;98458.63;104283;1284;74096;-23
2022/07/11 06:12:38;;;;;;;2.70;1.40;;;;;;;15.54;65.87;98458.39;103823;1290;76137;-24
2022/07/11 06:15:06;;;;;;;3.20;1.20;;;;;;;15.73;65.18;98454.73;104171;1284;345053;-25
2022/07/11 06:17:33;;;;;;;2.40;1.30;;;;;;;15.81;64.42;98453.52;104292;1287;61723;-24
2022/07/11 06:20:01;;;;;;;6.30;1.00;;;;;;;15.83;64.50;98457.34;104483;1284;61068;-25
2022/07/11 06:22:28;;;;;;;7.80;1.50;;;;;;;15.91;64.76;98456.48;104468;1281;74815;-25
2022/07/11 06:24:56;;;;;;;1.60;1.10;;;;;;;15.88;64.25;98452.63;104429;1281;77059;-24
2022/07/11 06:27:23;;;;;;;2.80;1.50;;;;;;;15.81;64.91;98455.08;104495;1281;75380;-25
2022/07/11 06:30:05;;;;;;;12.20;1.70;;;;;;;15.73;64.95;98453.52;103421;1290;62028;-23
2022/07/11 06:32:32;;;;;;;3.30;1.40;;;;;;;15.73;65.86;98452.01;104451;1278;61096;-23
2022/07/11 06:34:59;;;;;;;1.90;1.20;;;;;;;15.80;65.05;98448.37;104530;1279;75723;-25
2022/07/11 06:37:27;;;;;;;1.70;1.20;;;;;;;15.99;64.24;98448.04;104529;1278;75888;-25
2022/07/11 06:39:54;;;;;;;4.20;1.80;;;;;;;16.05;64.17;98448.55;104434;1280;74396;-24
2022/07/11 06:42:21;;;;;;;5.60;1.90;;;;;;;16.28;64.21;98440.41;104285;1277;62014;-25
2022/07/11 06:44:54;;;;;;;2.00;1.10;;;;;;;16.27;63.74;98444.67;104438;1278;61077;-24
2022/07/11 06:47:22;;;;;;;3.10;1.10;;;;;;;16.35;64.05;98443.26;104550;1278;74739;-25
2022/07/11 06:49:49;;;;;;;2.30;1.30;;;;;;;16.38;63.81;98440.69;104406;1278;75928;-24
2022/07/11 06:52:16;;;;;;;3.40;1.10;;;;;;;16.35;62.65;98443.23;104266;1281;75399;-24
2022/07/11 06:54:44;;;;;;;2.60;1.40;;;;;;;16.15;63.50;98444.44;104395;1279;61212;-24
2022/07/11 06:57:11;;;;;;;5.10;1.30;;;;;;;16.31;63.23;98440.34;104571;1277;62879;-24
2022/07/11 06:59:39;;;;;;;3.00;1.40;;;;;;;16.56;63.38;98436.08;104494;1280;75459;-25
2022/07/11 07:02:06;;;;;;;3.50;1.20;;;;;;;16.72;62.23;98438.32;104373;1280;75092;-25
2022/07/11 07:04:34;;;;;;;2.00;1.30;;;;;;;16.62;62.34;98432.08;104168;1281;75329;-24
2022/07/11 07:07:03;;;;;;;2.80;1.00;;;;;;;16.62;62.11;98439.27;104244;1275;61702;-24
2022/07/11 07:09:30;;;;;;;1.70;1.00;;;;;;;16.68;62.78;98434.52;104602;1274;62775;-24
2022/07/11 07:11:58;;;;;;;4.40;1.40;;;;;;;16.91;62.67;98438.54;104790;1274;74788;-24
2022/07/11 07:14:26;;;;;;;5.50;1.70;;;;;;;17.08;61.55;98442.38;105047;1274;75989;-25
2022/07/11 07:16:53;;;;;;;2.20;1.20;;;;;;;17.34;60.31;98436.86;104889;1273;75341;-24
2022/07/11 07:19:20;;;;;;;2.40;1.00;;;;;;;17.47;60.00;98421.77;104756;1274;61134;-24
2022/07/11 07:21:48;;;;;;;2.70;1.30;;;;;;;17.61;59.21;98427.17;104714;1274;61150;-24
2022/07/11 07:24:15;;;;;;;3.60;1.00;;;;;;;17.50;59.43;98426.90;104658;1275;75109;-25
2022/07/11 07:26:44;;;;;;;3.90;1.20;;;;;;;17.52;59.88;98428.45;105079;1272;75895;-25
2022/07/11 07:29:12;;;;;;;6.40;1.10;;;;;;;17.48;60.85;98426.09;104801;1274;75381;-24
2022/07/11 07:31:39;;;;;;;3.50;1.00;;;;;;;17.63;59.31;98423.42;104911;1274;61095;-24
2022/07/11 07:34:08;;;;;;;3.70;1.00;;;;;;;17.54;58.16;98425.00;105023;1274;62035;-24
2022/07/11 07:36:36;;;;;;;3.80;1.00;;;;;;;17.43;58.55;98426.61;104813;1274;74699;-24
2022/07/11 07:39:03;;;;;;;5.20;1.40;;;;;;;17.54;57.86;98427.99;104831;1274;76768;-24
2022/07/11 07:41:31;;;;;;;1.80;0.90;;;;;;;17.66;57.65;98426.21;104997;1274;74426;-25
2022/07/11 07:43:58;;;;;;;2.40;0.90;;;;;;;17.67;58.38;98429.21;104645;1274;61193;-25
2022/07/11 07:46:26;;;;;;;2.20;0.80;;;;;;;17.60;57.83;98429.73;105050;1272;61396;-24
2022/07/11 07:48:53;;;;;;;1.90;1.20;;;;;;;17.67;57.84;98435.38;105013;1273;75839;-25
2022/07/11 07:51:21;;;;;;;5.50;1.20;;;;;;;17.83;58.16;98435.58;104862;1274;77022;-25
2022/07/11 07:53:49;;;;;;;1.60;0.70;;;;;;;17.86;55.84;98430.31;105055;1272;75303;-24
2022/07/11 07:56:23;;;;;;;3.80;1.10;;;;;;;18.06;55.54;98429.02;105063;1272;63221;-25
2022/07/11 07:58:51;;;;;;;24.30;1.60;;;;;;;18.06;54.58;98426.77;104790;1274;63071;-25
2022/07/11 08:01:38;;;;;;;3.80;1.00;;;;;;;18.21;54.65;98423.96;105088;1274;74743;-23
2022/07/11 08:04:07;;;;;;;1.90;1.00;;;;;;;18.24;54.32;98429.02;105019;1274;76142;-23
2022/07/11 08:06:35;;;;;;;4.30;1.00;;;;;;;18.29;54.47;98420.02;104768;1275;75402;-24
2022/07/11 08:09:04;;;;;;;3.40;0.90;;;;;;;18.36;54.30;98424.05;104731;1272;61809;-24
2022/07/11 08:11:32;;;;;;;0.70;0.50;;;;;;;18.49;54.43;98424.59;104703;1272;61034;-23
2022/07/11 08:13:59;;;;;;;3.60;0.80;;;;;;;18.56;55.13;98427.49;104765;1273;74777;-23
2022/07/11 08:16:28;;;;;;;5.30;1.30;;;;;;;18.60;54.98;98417.44;104717;1272;76752;-24
2022/07/11 08:18:59;;;;;;;5.40;0.80;;;;;;;18.50;55.03;98425.54;104733;1272;75310;-24
2022/07/11 08:21:27;;;;;;;2.20;0.90;;;;;;;18.45;53.74;98423.27;104877;1272;61115;-24
2022/07/11 08:23:56;;;;;;;0.80;0.60;;;;;;;18.46;53.64;98421.11;104767;1274;61987;-24
2022/07/11 08:26:24;;;;;;;1.40;0.90;;;;;;;18.59;53.70;98421.62;104731;1274;76268;-23
2022/07/11 08:29:00;;;;;;;1.90;0.90;;;;;;;18.65;55.98;98414.44;104993;1271;77129;-23
2022/07/11 08:31:28;;;;;;;2.40;0.80;;;;;;;18.52;55.85;98417.84;105005;1271;74076;-24
2022/07/11 08:33:57;;;;;;;2.80;1.00;;;;;;;18.51;55.37;98416.95;105110;1274;62808;-24
2022/07/11 08:36:27;;;;;;;2.80;0.70;;;;;;;18.40;54.57;98415.80;104932;1274;63111;-24
2022/07/11 08:38:55;;;;;;;2.90;1.10;;;;;;;18.32;54.14;98416.43;105078;1272;75707;-23
2022/07/11 08:41:22;;;;;;;3.80;1.10;;;;;;;18.53;53.50;98421.74;105033;1274;75975;-25
2022/07/11 08:43:49;;;;;;;9.50;1.30;;;;;;;18.77;53.85;98422.30;105013;1272;74767;-24
2022/07/11 08:46:17;;;;;;;2.00;0.70;;;;;;;18.84;53.89;98431.06;104601;1274;61993;-24
2022/07/11 08:48:44;;;;;;;4.60;1.10;;;;;;;18.91;53.50;98426.69;104603;1274;63040;-24
2022/07/11 08:51:12;;;;;;;2.90;0.80;;;;;;;18.88;52.61;98423.06;104641;1272;75829;-24
2022/07/11 08:53:44;;;;;;;3.50;0.90;;;;;;;18.95;53.37;98422.58;104836;1274;77195;-23
2022/07/11 08:56:17;;;;;;;1.70;0.70;;;;;;;19.00;53.29;98418.89;104699;1274;75300;-23
2022/07/11 08:58:47;;;;;;;4.50;1.00;;;;;;;18.75;53.43;98419.58;104661;1274;62111;-24
2022/07/11 09:01:35;;;;;;;5.60;1.10;;;;;;;18.77;53.01;98414.23;104378;1277;61796;-24
2022/07/11 09:04:02;;;;;;;2.60;0.90;;;;;;;18.95;52.84;98417.39;104443;1277;73983;-24
2022/07/11 09:06:29;;;;;;;5.50;0.90;;;;;;;18.94;52.21;98422.48;104462;1277;76051;-24
2022/07/11 09:09:00;;;;;;;20.70;1.90;;;;;;;18.93;52.61;98426.92;104402;1276;74921;-24
2022/07/11 09:11:27;;;;;;;4.50;0.80;;;;;;;19.01;52.22;98421.39;104524;1277;62989;-24
2022/07/11 09:13:55;;;;;;;1.30;0.60;;;;;;;19.12;51.85;98421.09;104650;1277;63808;-24
2022/07/11 09:16:26;;;;;;;1.10;0.70;;;;;;;19.14;51.49;98416.48;104478;1277;73805;-24
2022/07/11 09:18:58;;;;;;;1.70;0.80;;;;;;;19.21;51.88;98416.45;104695;1277;76986;-24
2022/07/11 09:26:56;;;;;;;3.00;0.80;;;;;;;19.30;50.25;98421.86;104953;1274;63261;-24
2022/07/11 09:29:24;;;;;;;2.30;0.90;;;;;;;19.50;50.68;98417.05;105075;1274;75747;-24
2022/07/11 09:31:51;;;;;;;2.90;0.80;;;;;;;19.62;48.66;98419.85;104979;1274;76448;-24
2022/07/11 09:34:20;;;;;;;1.70;0.70;;;;;;;19.38;48.75;98404.95;104896;1274;73377;-24
2022/07/11 09:36:54;;;;;;;2.00;0.70;;;;;;;19.17;49.91;98418.59;104854;1274;61434;-24
2022/07/11 09:39:28;;;;;;;5.30;0.80;;;;;;;19.38;49.51;98409.70;104791;1274;62017;-24
2022/07/11 09:41:56;;;;;;;1.60;0.70;;;;;;;19.87;49.76;98420.40;104825;1274;75946;-23
2022/07/11 09:44:27;;;;;;;5.40;0.80;;;;;;;20.06;48.34;98411.58;104951;1274;77055;-25
2022/07/11 09:46:55;;;;;;;2.90;0.80;;;;;;;20.01;47.89;98412.19;104702;1274;74308;-24
2022/07/11 09:49:32;;;;;;;7.00;1.10;;;;;;;19.77;47.95;98419.56;105079;1274;63307;-24
2022/07/11 09:52:16;;;;;;;1.20;0.80;;;;;;;19.98;47.79;98412.70;104746;1274;63579;-24
2022/07/11 09:54:56;;;;;;;1.80;0.90;;;;;;;20.01;47.56;98421.73;104724;1274;75788;-24
2022/07/11 09:57:38;;;;;;;4.00;0.70;;;;;;;20.19;47.80;98425.36;104747;1274;77155;-24
2022/07/11 10:00:06;;;;;;;1.80;0.70;;;;;;;20.17;47.46;98418.45;104856;1274;74169;-24
2022/07/11 10:02:33;;;;;;;1.40;0.60;;;;;;;20.24;48.37;98412.69;104877;1271;61913;-24
2022/07/11 10:05:01;;;;;;;1.90;0.80;;;;;;;20.33;48.91;98420.04;104943;1271;61932;-24
2022/07/11 10:07:29;;;;;;;2.00;0.80;;;;;;;20.04;49.25;98421.61;105097;1271;75832;-24
2022/07/11 10:09:57;;;;;;;2.20;0.80;;;;;;;19.77;50.20;98421.47;105032;1271;76993;-24
2022/07/11 10:12:25;;;;;;;1.20;0.80;;;;;;;19.96;50.38;98410.80;104828;1274;74468;-24
2022/07/11 10:14:52;;;;;;;6.10;0.90;;;;;;;19.76;50.64;98414.84;104877;1271;63195;-24
2022/07/11 10:17:39;;;;;;;1.60;0.80;;;;;;;19.43;52.19;98414.42;104964;1271;61638;-24
2022/07/11 10:20:12;;;;;;;6.90;1.00;;;;;;;19.36;52.65;98427.45;104856;1271;75265;-24
2022/07/11 10:22:42;;;;;;;2.40;0.80;;;;;;;19.24;51.90;98422.94;104731;1271;76097;-24
2022/07/11 10:25:24;;;;;;;1.60;0.70;;;;;;;19.07;52.60;98429.06;105023;1271;74750;-24
2022/07/11 10:28:13;;;;;;;2.40;1.00;;;;;;;19.28;53.03;98426.08;104776;1271;63240;-24
2022/07/11 10:30:47;;;;;;;3.70;0.90;;;;;;;19.32;52.41;98424.92;104931;1271;62000;-24
2022/07/11 10:33:15;;;;;;;1.80;0.70;;;;;;;19.34;52.70;98430.69;105072;1271;75638;-24
2022/07/11 10:35:44;;;;;;;3.20;0.80;;;;;;;19.19;53.73;98434.45;105130;1272;76398;-24
2022/07/11 10:38:11;;;;;;;1.50;0.80;;;;;;;19.36;53.48;98433.09;105118;1271;73345;-24
2022/07/11 10:40:45;;;;;;;2.80;1.00;;;;;;;19.31;53.79;98427.48;105100;1271;62025;-25
2022/07/11 10:43:36;;;;;;;3.10;1.10;;;;;;;19.15;54.01;98434.79;104805;1271;61234;-24
2022/07/11 10:46:07;;;;;;;1.70;0.70;;;;;;;19.19;54.28;98435.50;104869;1274;76398;-24
2022/07/11 10:48:51;;;;;;;2.20;1.00;;;;;;;19.32;54.83;98441.11;105033;1271;75147;-24
2022/07/11 10:51:34;;;;;;;2.30;0.80;;;;;;;19.46;53.65;98435.40;104836;1271;75826;-24
2022/07/11 10:54:26;;;;;;;2.50;1.20;;;;;;;19.40;53.86;98437.69;104956;1271;62863;-24
2022/07/11 10:57:07;;;;;;;5.40;0.90;;;;;;;19.25;53.86;98441.16;104624;1271;62756;-24
2022/07/11 10:59:34;;;;;;;5.80;1.20;;;;;;;19.16;55.17;98447.73;104971;1274;76587;-24
2022/07/11 11:02:09;;;;;;;2.30;1.10;;;;;;;18.62;56.33;98457.20;104988;1271;77380;-24
2022/07/11 11:04:47;;;;;;;1.50;0.70;;;;;;;18.47;57.36;98457.31;104680;1271;75407;-24
2022/07/11 11:07:43;;;;;;;1.60;0.80;;;;;;;18.17;57.87;98456.95;104791;1271;62081;-24
2022/07/11 11:10:16;;;;;;;2.00;0.90;;;;;;;17.79;60.05;98459.21;104768;1271;61994;-24
2022/07/11 11:13:06;;;;;;;;;;;;;;;17.58;62.15;98464.98;104823;1271;75704;-24
2022/07/11 11:15:34;;;;;;;2.10;1.00;;;;;;;17.27;65.46;98460.66;104939;1271;75980;-24
2022/07/11 11:18:24;;;;;;;2.60;1.00;;;;;;;17.12;67.26;98463.23;105116;1274;75224;-24
2022/07/11 11:21:09;;;;;;;2.10;0.90;;;;;;;16.99;69.41;98460.27;104846;1274;62760;-24
2022/07/11 11:23:36;;;;;;;2.00;0.80;;;;;;;16.79;68.89;98456.46;104868;1271;62706;-24
2022/07/11 11:26:20;;;;;;;1.50;0.80;;;;;;;17.07;70.45;98467.91;104742;1271;76633;-24
2022/07/11 11:29:06;;;;;;;1.00;0.70;;;;;;;17.45;71.27;98471.57;104765;1271;77047;-25
2022/07/11 11:31:33;;;;;;;1.00;0.80;;;;;;;17.52;71.59;98471.05;105079;1271;74390;-24
2022/07/11 11:34:02;;;;;;;2.60;0.90;;;;;;;17.35;69.32;98464.10;105107;1271;61959;-24
2022/07/11 11:36:29;;;;;;;3.10;1.10;;;;;;;17.23;68.73;98465.02;105039;1271;63548;-24
2022/07/11 11:38:56;;;;;;;2.30;1.20;;;;;;;17.20;67.18;98468.11;105210;1270;76653;-24
2022/07/11 11:41:28;;;;;;;1.90;0.90;;;;;;;17.23;66.68;98469.40;105108;1271;76922;-24
2022/07/11 11:43:57;;;;;;;2.00;1.20;;;;;;;17.07;64.06;98468.95;104682;1271;75433;-24
2022/07/11 11:46:31;;;;;;;4.40;0.90;;;;;;;16.99;64.22;98469.05;104784;1271;62058;-24